sensor_id;sensor_type;location;lat;lon;timestamp;temperature;humidity
17944;DHT22;9097;47.028;15.444;2022-12-10T00:00:43;4.70;99.90
17944;DHT22;9097;47.028;15.444;2022-12-10T00:03:46;4.70;99.90
17944;DHT22;9097;47.028;15.444;2022-12-10T00:06:50;4.70;99.90
17944;DHT22;9097;47.028;15.444;2022-12-10T00:09:52;4.70;99.90
17944;DHT22;9097;47.028;15.444;2022-12-10T00:12:56;4.60;99.90
17944;DHT22;9097;47.028;15.444;2022-12-10T00:15:59;4.60;99.90
17944;DHT22;9097;47.028;15.444;2022-12-10T00:19:02;4.70;99.90
17944;DHT22;9097;47.028;15.444;2022-12-10T00:22:06;4.60;99.90
17944;DHT22;9097;47.028;15.444;2022-12-10T00:25:09;4.70;99.90
17944;DHT22;9097;47.028;15.444;2022-12-10T00:28:12;4.70;99.90
17944;DHT22;9097;47.028;15.444;2022-12-10T00:31:17;4.70;99.90
17944;DHT22;9097;47.028;15.444;2022-12-10T00:34:20;4.70;99.90
17944;DHT22;9097;47.028;15.444;2022-12-10T00:37:24;4.70;99.90
17944;DHT22;9097;47.028;15.444;2022-12-10T00:40:27;4.80;99.90
17944;DHT22;9097;47.028;15.444;2022-12-10T00:43:30;4.80;99.90
17944;DHT22;9097;47.028;15.444;2022-12-10T00:46:33;4.80;99.90
17944;DHT22;9097;47.028;15.444;2022-12-10T00:49:35;4.80;99.90
17944;DHT22;9097;47.028;15.444;2022-12-10T00:52:39;4.80;99.90
17944;DHT22;9097;47.028;15.444;2022-12-10T00:55:43;4.90;99.90
17944;DHT22;9097;47.028;15.444;2022-12-10T00:58:47;4.90;99.90
17944;DHT22;9097;47.028;15.444;2022-12-10T01:01:50;5.00;99.90
17944;DHT22;9097;47.028;15.444;2022-12-10T01:04:53;5.00;99.90
17944;DHT22;9097;47.028;15.444;2022-12-10T01:07:57;4.90;99.90
17944;DHT22;9097;47.028;15.444;2022-12-10T01:11:00;4.90;99.90
17944;DHT22;9097;47.028;15.444;2022-12-10T01:14:04;4.90;99.90
17944;DHT22;9097;47.028;15.444;2022-12-10T01:17:06;4.80;99.90
17944;DHT22;9097;47.028;15.444;2022-12-10T01:20:10;4.80;99.90
17944;DHT22;9097;47.028;15.444;2022-12-10T01:23:14;4.80;99.90
17944;DHT22;9097;47.028;15.444;2022-12-10T01:26:18;4.70;99.90
17944;DHT22;9097;47.028;15.444;2022-12-10T01:29:21;4.80;99.90
17944;DHT22;9097;47.028;15.444;2022-12-10T01:32:24;4.80;99.90
17944;DHT22;9097;47.028;15.444;2022-12-10T01:35:26;4.80;99.90
17944;DHT22;9097;47.028;15.444;2022-12-10T01:38:30;4.80;99.90
17944;DHT22;9097;47.028;15.444;2022-12-10T01:41:35;4.80;99.90
17944;DHT22;9097;47.028;15.444;2022-12-10T01:45:06;4.90;99.90
17944;DHT22;9097;47.028;15.444;2022-12-10T01:48:09;4.90;99.90
17944;DHT22;9097;47.028;15.444;2022-12-10T01:51:13;4.80;99.90
17944;DHT22;9097;47.028;15.444;2022-12-10T01:54:20;4.80;99.90
17944;DHT22;9097;47.028;15.444;2022-12-10T01:57:26;4.90;99.90
17944;DHT22;9097;47.028;15.444;2022-12-10T02:00:29;5.00;99.90
17944;DHT22;9097;47.028;15.444;2022-12-10T02:03:38;5.00;99.90
17944;DHT22;9097;47.028;15.444;2022-12-10T02:06:48;4.90;99.90
17944;DHT22;9097;47.028;15.444;2022-12-10T02:10:00;5.10;99.90
17944;DHT22;9097;47.028;15.444;2022-12-10T02:13:08;5.20;99.90
17944;DHT22;9097;47.028;15.444;2022-12-10T02:16:15;5.20;99.90
17944;DHT22;9097;47.028;15.444;2022-12-10T02:19:24;5.10;99.90
17944;DHT22;9097;47.028;15.444;2022-12-10T02:22:32;5.10;99.90
17944;DHT22;9097;47.028;15.444;2022-12-10T02:25:41;5.10;99.90
17944;DHT22;9097;47.028;15.444;2022-12-10T02:28:52;5.10;99.90
17944;DHT22;9097;47.028;15.444;2022-12-10T02:32:03;5.20;99.90
17944;DHT22;9097;47.028;15.444;2022-12-10T02:35:12;5.20;99.90
17944;DHT22;9097;47.028;15.444;2022-12-10T02:38:18;5.10;99.90
17944;DHT22;9097;47.028;15.444;2022-12-10T02:41:25;5.10;99.90
17944;DHT22;9097;47.028;15.444;2022-12-10T02:44:29;5.10;99.90
17944;DHT22;9097;47.028;15.444;2022-12-10T02:47:35;5.20;99.90
17944;DHT22;9097;47.028;15.444;2022-12-10T02:50:38;5.10;99.90
17944;DHT22;9097;47.028;15.444;2022-12-10T02:53:41;5.20;99.90
17944;DHT22;9097;47.028;15.444;2022-12-10T02:56:52;5.20;99.90
17944;DHT22;9097;47.028;15.444;2022-12-10T03:00:03;5.10;99.90
17944;DHT22;9097;47.028;15.444;2022-12-10T03:03:28;5.10;99.90
17944;DHT22;9097;47.028;15.444;2022-12-10T03:06:38;5.30;99.90
17944;DHT22;9097;47.028;15.444;2022-12-10T03:09:47;5.30;99.90
17944;DHT22;9097;47.028;15.444;2022-12-10T03:12:54;5.30;99.90
17944;DHT22;9097;47.028;15.444;2022-12-10T03:15:59;5.30;99.90
17944;DHT22;9097;47.028;15.444;2022-12-10T03:19:06;5.40;99.90
17944;DHT22;9097;47.028;15.444;2022-12-10T03:22:13;5.40;99.90
17944;DHT22;9097;47.028;15.444;2022-12-10T03:25:19;5.40;99.90
17944;DHT22;9097;47.028;15.444;2022-12-10T03:28:22;5.40;99.90
17944;DHT22;9097;47.028;15.444;2022-12-10T03:31:26;5.40;99.90
17944;DHT22;9097;47.028;15.444;2022-12-10T03:34:32;5.40;99.90
17944;DHT22;9097;47.028;15.444;2022-12-10T03:37:35;5.40;99.90
17944;DHT22;9097;47.028;15.444;2022-12-10T03:40:39;5.30;99.90
17944;DHT22;9097;47.028;15.444;2022-12-10T03:43:52;5.30;99.90
17944;DHT22;9097;47.028;15.444;2022-12-10T03:46:56;5.30;99.90
17944;DHT22;9097;47.028;15.444;2022-12-10T03:50:00;5.40;99.90
17944;DHT22;9097;47.028;15.444;2022-12-10T03:53:02;5.40;99.90
17944;DHT22;9097;47.028;15.444;2022-12-10T03:56:05;5.30;99.90
17944;DHT22;9097;47.028;15.444;2022-12-10T03:59:08;5.20;99.90
17944;DHT22;9097;47.028;15.444;2022-12-10T04:02:11;5.20;99.90
17944;DHT22;9097;47.028;15.444;2022-12-10T04:05:16;5.20;99.90
17944;DHT22;9097;47.028;15.444;2022-12-10T04:08:20;5.20;99.90
17944;DHT22;9097;47.028;15.444;2022-12-10T04:11:22;5.20;99.90
17944;DHT22;9097;47.028;15.444;2022-12-10T04:14:26;5.30;99.90
17944;DHT22;9097;47.028;15.444;2022-12-10T04:17:46;5.30;99.90
17944;DHT22;9097;47.028;15.444;2022-12-10T04:20:50;5.40;99.90
17944;DHT22;9097;47.028;15.444;2022-12-10T04:24:10;5.40;99.90
17944;DHT22;9097;47.028;15.444;2022-12-10T04:27:32;5.40;99.90
17944;DHT22;9097;47.028;15.444;2022-12-10T04:30:34;5.40;99.90
17944;DHT22;9097;47.028;15.444;2022-12-10T04:33:37;5.40;99.90
17944;DHT22;9097;47.028;15.444;2022-12-10T04:36:40;5.30;99.90
17944;DHT22;9097;47.028;15.444;2022-12-10T04:39:44;5.30;99.90
17944;DHT22;9097;47.028;15.444;2022-12-10T04:42:46;5.30;99.90
17944;DHT22;9097;47.028;15.444;2022-12-10T04:45:49;5.30;99.90
17944;DHT22;9097;47.028;15.444;2022-12-10T04:48:51;5.30;99.90
17944;DHT22;9097;47.028;15.444;2022-12-10T04:51:55;5.30;99.90
17944;DHT22;9097;47.028;15.444;2022-12-10T04:54:57;5.20;99.90
17944;DHT22;9097;47.028;15.444;2022-12-10T04:58:00;5.20;99.90
17944;DHT22;9097;47.028;15.444;2022-12-10T05:01:03;5.30;99.90
17944;DHT22;9097;47.028;15.444;2022-12-10T05:04:09;5.30;99.90
17944;DHT22;9097;47.028;15.444;2022-12-10T05:07:14;5.30;99.90
17944;DHT22;9097;47.028;15.444;2022-12-10T05:10:17;5.30;99.90
17944;DHT22;9097;47.028;15.444;2022-12-10T05:13:20;5.30;99.90
17944;DHT22;9097;47.028;15.444;2022-12-10T05:16:28;5.40;99.90
17944;DHT22;9097;47.028;15.444;2022-12-10T05:19:31;5.30;99.90
17944;DHT22;9097;47.028;15.444;2022-12-10T05:22:35;5.30;99.90
17944;DHT22;9097;47.028;15.444;2022-12-10T05:26:00;5.30;99.90
17944;DHT22;9097;47.028;15.444;2022-12-10T05:29:04;5.30;99.90
17944;DHT22;9097;47.028;15.444;2022-12-10T05:32:07;5.30;99.90
17944;DHT22;9097;47.028;15.444;2022-12-10T05:35:09;5.30;99.90
17944;DHT22;9097;47.028;15.444;2022-12-10T05:38:13;5.30;99.90
17944;DHT22;9097;47.028;15.444;2022-12-10T05:41:18;5.40;99.90
17944;DHT22;9097;47.028;15.444;2022-12-10T05:44:21;5.50;99.90
17944;DHT22;9097;47.028;15.444;2022-12-10T05:47:24;5.50;99.90
17944;DHT22;9097;47.028;15.444;2022-12-10T05:50:27;5.60;99.90
17944;DHT22;9097;47.028;15.444;2022-12-10T05:53:31;5.60;99.90
17944;DHT22;9097;47.028;15.444;2022-12-10T05:56:35;5.70;99.90
17944;DHT22;9097;47.028;15.444;2022-12-10T05:59:37;5.70;99.90
17944;DHT22;9097;47.028;15.444;2022-12-10T06:02:40;5.60;99.90
17944;DHT22;9097;47.028;15.444;2022-12-10T06:05:42;5.60;99.90
17944;DHT22;9097;47.028;15.444;2022-12-10T06:08:46;5.60;99.90
17944;DHT22;9097;47.028;15.444;2022-12-10T06:11:50;5.70;99.90
17944;DHT22;9097;47.028;15.444;2022-12-10T06:14:53;5.60;99.90
17944;DHT22;9097;47.028;15.444;2022-12-10T06:17:56;5.60;99.90
17944;DHT22;9097;47.028;15.444;2022-12-10T06:20:59;5.60;99.90
17944;DHT22;9097;47.028;15.444;2022-12-10T06:24:07;5.60;99.90
17944;DHT22;9097;47.028;15.444;2022-12-10T06:27:09;5.60;99.90
17944;DHT22;9097;47.028;15.444;2022-12-10T06:30:12;5.60;99.90
17944;DHT22;9097;47.028;15.444;2022-12-10T06:33:15;5.50;99.90
17944;DHT22;9097;47.028;15.444;2022-12-10T06:36:20;5.60;99.90
17944;DHT22;9097;47.028;15.444;2022-12-10T06:39:24;5.60;99.90
17944;DHT22;9097;47.028;15.444;2022-12-10T06:42:27;5.60;99.90
17944;DHT22;9097;47.028;15.444;2022-12-10T06:45:30;5.50;99.90
17944;DHT22;9097;47.028;15.444;2022-12-10T06:48:33;5.50;99.90
17944;DHT22;9097;47.028;15.444;2022-12-10T06:51:40;5.50;99.90
17944;DHT22;9097;47.028;15.444;2022-12-10T06:54:45;5.50;99.90
17944;DHT22;9097;47.028;15.444;2022-12-10T06:57:51;5.40;99.90
17944;DHT22;9097;47.028;15.444;2022-12-10T07:00:54;5.40;99.90
17944;DHT22;9097;47.028;15.444;2022-12-10T07:03:57;5.40;99.90
17944;DHT22;9097;47.028;15.444;2022-12-10T07:07:01;5.40;99.90
17944;DHT22;9097;47.028;15.444;2022-12-10T07:10:06;5.50;99.90
17944;DHT22;9097;47.028;15.444;2022-12-10T07:13:08;5.50;99.90
17944;DHT22;9097;47.028;15.444;2022-12-10T07:16:14;5.50;99.90
17944;DHT22;9097;47.028;15.444;2022-12-10T07:19:17;5.50;99.90
17944;DHT22;9097;47.028;15.444;2022-12-10T07:22:20;5.50;99.90
17944;DHT22;9097;47.028;15.444;2022-12-10T07:25:25;5.50;99.90
17944;DHT22;9097;47.028;15.444;2022-12-10T07:28:28;5.60;99.90
17944;DHT22;9097;47.028;15.444;2022-12-10T07:31:31;5.60;99.90
17944;DHT22;9097;47.028;15.444;2022-12-10T07:34:34;5.50;99.90
17944;DHT22;9097;47.028;15.444;2022-12-10T07:37:38;5.60;99.90
17944;DHT22;9097;47.028;15.444;2022-12-10T07:40:42;5.60;99.90
17944;DHT22;9097;47.028;15.444;2022-12-10T07:43:45;5.80;99.90
17944;DHT22;9097;47.028;15.444;2022-12-10T07:46:49;5.70;99.90
17944;DHT22;9097;47.028;15.444;2022-12-10T07:49:53;5.80;99.90
17944;DHT22;9097;47.028;15.444;2022-12-10T07:52:55;5.70;99.90
17944;DHT22;9097;47.028;15.444;2022-12-10T07:56:01;5.70;99.90
17944;DHT22;9097;47.028;15.444;2022-12-10T07:59:03;5.80;99.90
17944;DHT22;9097;47.028;15.444;2022-12-10T08:02:08;5.80;99.90
17944;DHT22;9097;47.028;15.444;2022-12-10T08:05:10;5.80;99.90
17944;DHT22;9097;47.028;15.444;2022-12-10T08:08:13;5.80;99.90
17944;DHT22;9097;47.028;15.444;2022-12-10T08:11:20;5.80;99.90
17944;DHT22;9097;47.028;15.444;2022-12-10T08:14:22;5.80;99.90
17944;DHT22;9097;47.028;15.444;2022-12-10T08:17:25;5.80;99.90
17944;DHT22;9097;47.028;15.444;2022-12-10T08:20:28;5.80;99.90
17944;DHT22;9097;47.028;15.444;2022-12-10T08:23:30;5.90;99.90
17944;DHT22;9097;47.028;15.444;2022-12-10T08:26:35;5.80;99.90
17944;DHT22;9097;47.028;15.444;2022-12-10T08:29:39;5.80;99.90
17944;DHT22;9097;47.028;15.444;2022-12-10T08:32:42;5.80;99.90
17944;DHT22;9097;47.028;15.444;2022-12-10T08:35:45;5.90;99.90
17944;DHT22;9097;47.028;15.444;2022-12-10T08:38:47;5.90;99.90
17944;DHT22;9097;47.028;15.444;2022-12-10T08:41:51;5.90;99.90
17944;DHT22;9097;47.028;15.444;2022-12-10T08:44:54;5.90;99.90
17944;DHT22;9097;47.028;15.444;2022-12-10T08:47:57;5.90;99.90
17944;DHT22;9097;47.028;15.444;2022-12-10T08:50:59;5.90;99.90
17944;DHT22;9097;47.028;15.444;2022-12-10T08:54:03;5.90;99.90
17944;DHT22;9097;47.028;15.444;2022-12-10T08:57:07;5.90;99.90
17944;DHT22;9097;47.028;15.444;2022-12-10T09:00:11;5.90;99.90
17944;DHT22;9097;47.028;15.444;2022-12-10T09:03:15;5.90;99.90
17944;DHT22;9097;47.028;15.444;2022-12-10T09:06:20;5.90;99.90
17944;DHT22;9097;47.028;15.444;2022-12-10T09:09:23;5.90;99.90
17944;DHT22;9097;47.028;15.444;2022-12-10T09:12:27;5.80;99.90
17944;DHT22;9097;47.028;15.444;2022-12-10T09:15:29;5.80;99.90
17944;DHT22;9097;47.028;15.444;2022-12-10T09:18:33;5.80;99.90
17944;DHT22;9097;47.028;15.444;2022-12-10T09:21:36;5.90;99.90
17944;DHT22;9097;47.028;15.444;2022-12-10T09:24:40;5.90;99.90
17944;DHT22;9097;47.028;15.444;2022-12-10T09:27:44;6.00;99.90
17944;DHT22;9097;47.028;15.444;2022-12-10T09:30:55;6.00;99.90
17944;DHT22;9097;47.028;15.444;2022-12-10T09:33:58;6.00;99.90
17944;DHT22;9097;47.028;15.444;2022-12-10T09:37:01;6.00;99.90
17944;DHT22;9097;47.028;15.444;2022-12-10T09:40:04;6.00;99.90
17944;DHT22;9097;47.028;15.444;2022-12-10T09:43:13;6.00;99.90
17944;DHT22;9097;47.028;15.444;2022-12-10T09:46:23;5.90;99.90
17944;DHT22;9097;47.028;15.444;2022-12-10T09:49:36;5.90;99.90
17944;DHT22;9097;47.028;15.444;2022-12-10T09:52:43;6.00;99.90
17944;DHT22;9097;47.028;15.444;2022-12-10T09:55:48;6.00;99.90
17944;DHT22;9097;47.028;15.444;2022-12-10T09:58:53;6.00;99.90
17944;DHT22;9097;47.028;15.444;2022-12-10T10:02:03;6.00;99.90
17944;DHT22;9097;47.028;15.444;2022-12-10T10:05:11;6.00;99.90
17944;DHT22;9097;47.028;15.444;2022-12-10T10:08:23;5.90;99.90
17944;DHT22;9097;47.028;15.444;2022-12-10T10:11:33;5.90;99.90
17944;DHT22;9097;47.028;15.444;2022-12-10T10:14:38;6.00;99.90
17944;DHT22;9097;47.028;15.444;2022-12-10T10:17:42;6.10;99.90
17944;DHT22;9097;47.028;15.444;2022-12-10T10:20:47;6.10;99.90
17944;DHT22;9097;47.028;15.444;2022-12-10T10:23:51;6.10;99.90
17944;DHT22;9097;47.028;15.444;2022-12-10T10:26:57;6.00;99.90
17944;DHT22;9097;47.028;15.444;2022-12-10T10:30:06;6.00;99.90
17944;DHT22;9097;47.028;15.444;2022-12-10T10:33:11;5.90;99.90
17944;DHT22;9097;47.028;15.444;2022-12-10T10:36:14;5.90;99.90
17944;DHT22;9097;47.028;15.444;2022-12-10T10:39:28;6.00;99.90
17944;DHT22;9097;47.028;15.444;2022-12-10T10:42:35;6.00;99.90
17944;DHT22;9097;47.028;15.444;2022-12-10T10:45:42;6.10;99.90
17944;DHT22;9097;47.028;15.444;2022-12-10T10:48:45;6.10;99.90
17944;DHT22;9097;47.028;15.444;2022-12-10T10:51:48;6.10;99.90
17944;DHT22;9097;47.028;15.444;2022-12-10T10:54:51;6.00;99.90
17944;DHT22;9097;47.028;15.444;2022-12-10T10:57:54;6.00;99.90
17944;DHT22;9097;47.028;15.444;2022-12-10T11:01:00;6.00;99.90
17944;DHT22;9097;47.028;15.444;2022-12-10T11:04:03;6.00;99.90
17944;DHT22;9097;47.028;15.444;2022-12-10T11:07:16;6.00;99.90
17944;DHT22;9097;47.028;15.444;2022-12-10T11:10:21;6.10;99.90
17944;DHT22;9097;47.028;15.444;2022-12-10T11:13:26;6.00;99.90
17944;DHT22;9097;47.028;15.444;2022-12-10T11:16:34;6.10;99.90
17944;DHT22;9097;47.028;15.444;2022-12-10T11:19:42;6.10;99.90
17944;DHT22;9097;47.028;15.444;2022-12-10T11:22:49;6.10;99.90
17944;DHT22;9097;47.028;15.444;2022-12-10T11:25:58;6.20;99.90
17944;DHT22;9097;47.028;15.444;2022-12-10T11:29:12;6.10;99.90
17944;DHT22;9097;47.028;15.444;2022-12-10T11:32:30;6.10;99.90
17944;DHT22;9097;47.028;15.444;2022-12-10T11:35:47;6.00;99.90
17944;DHT22;9097;47.028;15.444;2022-12-10T11:39:02;6.10;99.90
17944;DHT22;9097;47.028;15.444;2022-12-10T11:42:12;6.10;99.90
17944;DHT22;9097;47.028;15.444;2022-12-10T11:45:22;6.10;99.90
17944;DHT22;9097;47.028;15.444;2022-12-10T11:48:38;6.10;99.90
17944;DHT22;9097;47.028;15.444;2022-12-10T11:51:50;6.00;99.90
17944;DHT22;9097;47.028;15.444;2022-12-10T11:55:03;6.00;99.90
17944;DHT22;9097;47.028;15.444;2022-12-10T11:58:22;6.10;99.90
17944;DHT22;9097;47.028;15.444;2022-12-10T12:01:38;6.10;99.90
17944;DHT22;9097;47.028;15.444;2022-12-10T12:04:56;6.10;99.90
17944;DHT22;9097;47.028;15.444;2022-12-10T12:08:15;6.10;99.90
17944;DHT22;9097;47.028;15.444;2022-12-10T12:11:33;6.10;99.90
17944;DHT22;9097;47.028;15.444;2022-12-10T12:14:48;6.10;99.90
17944;DHT22;9097;47.028;15.444;2022-12-10T12:17:56;6.10;99.90
17944;DHT22;9097;47.028;15.444;2022-12-10T12:21:04;6.00;99.90
17944;DHT22;9097;47.028;15.444;2022-12-10T12:24:14;6.00;99.90
17944;DHT22;9097;47.028;15.444;2022-12-10T12:27:24;6.00;99.90
17944;DHT22;9097;47.028;15.444;2022-12-10T12:30:36;6.10;99.90
17944;DHT22;9097;47.028;15.444;2022-12-10T12:33:49;6.10;99.90
17944;DHT22;9097;47.028;15.444;2022-12-10T12:36:54;6.10;99.90
17944;DHT22;9097;47.028;15.444;2022-12-10T12:40:02;6.00;99.90
17944;DHT22;9097;47.028;15.444;2022-12-10T12:43:10;6.00;99.90
17944;DHT22;9097;47.028;15.444;2022-12-10T12:46:18;6.00;99.90
17944;DHT22;9097;47.028;15.444;2022-12-10T12:49:28;6.00;99.90
17944;DHT22;9097;47.028;15.444;2022-12-10T12:52:40;5.90;99.90
17944;DHT22;9097;47.028;15.444;2022-12-10T12:55:59;6.00;99.90
17944;DHT22;9097;47.028;15.444;2022-12-10T12:59:10;5.90;99.90
17944;DHT22;9097;47.028;15.444;2022-12-10T13:02:26;6.00;99.90
17944;DHT22;9097;47.028;15.444;2022-12-10T13:05:36;5.90;99.90
17944;DHT22;9097;47.028;15.444;2022-12-10T13:08:45;5.90;99.90
17944;DHT22;9097;47.028;15.444;2022-12-10T13:12:17;5.80;99.90
17944;DHT22;9097;47.028;15.444;2022-12-10T13:15:38;5.80;99.90
17944;DHT22;9097;47.028;15.444;2022-12-10T13:18:45;5.80;99.90
17944;DHT22;9097;47.028;15.444;2022-12-10T13:22:03;5.80;99.90
17944;DHT22;9097;47.028;15.444;2022-12-10T13:25:54;5.70;99.90
17944;DHT22;9097;47.028;15.444;2022-12-10T13:29:24;5.70;99.90
17944;DHT22;9097;47.028;15.444;2022-12-10T13:32:44;5.70;99.90
17944;DHT22;9097;47.028;15.444;2022-12-10T13:35:56;5.70;99.90
17944;DHT22;9097;47.028;15.444;2022-12-10T13:39:13;5.60;99.90
17944;DHT22;9097;47.028;15.444;2022-12-10T13:42:45;5.60;99.90
17944;DHT22;9097;47.028;15.444;2022-12-10T13:46:30;5.60;99.90
17944;DHT22;9097;47.028;15.444;2022-12-10T13:49:49;5.60;99.90
17944;DHT22;9097;47.028;15.444;2022-12-10T13:53:00;5.60;99.90
17944;DHT22;9097;47.028;15.444;2022-12-10T13:56:11;5.60;99.90
17944;DHT22;9097;47.028;15.444;2022-12-10T13:59:28;5.60;99.90
17944;DHT22;9097;47.028;15.444;2022-12-10T14:02:46;5.50;99.90
17944;DHT22;9097;47.028;15.444;2022-12-10T14:06:13;5.50;99.90
17944;DHT22;9097;47.028;15.444;2022-12-10T14:09:21;5.50;99.90
17944;DHT22;9097;47.028;15.444;2022-12-10T14:12:31;5.50;99.90
17944;DHT22;9097;47.028;15.444;2022-12-10T14:15:37;5.50;99.90
17944;DHT22;9097;47.028;15.444;2022-12-10T14:18:42;5.50;99.90
17944;DHT22;9097;47.028;15.444;2022-12-10T14:21:50;5.40;99.90
17944;DHT22;9097;47.028;15.444;2022-12-10T14:25:00;5.40;99.90
17944;DHT22;9097;47.028;15.444;2022-12-10T14:28:12;5.40;99.90
17944;DHT22;9097;47.028;15.444;2022-12-10T14:31:19;5.40;99.90
17944;DHT22;9097;47.028;15.444;2022-12-10T14:34:25;5.40;99.90
17944;DHT22;9097;47.028;15.444;2022-12-10T14:37:31;5.30;99.90
17944;DHT22;9097;47.028;15.444;2022-12-10T14:40:39;5.20;99.90
17944;DHT22;9097;47.028;15.444;2022-12-10T14:43:51;5.20;99.90
17944;DHT22;9097;47.028;15.444;2022-12-10T14:47:14;5.10;99.90
17944;DHT22;9097;47.028;15.444;2022-12-10T14:50:18;5.10;99.90
17944;DHT22;9097;47.028;15.444;2022-12-10T14:53:23;5.20;99.90
17944;DHT22;9097;47.028;15.444;2022-12-10T14:56:32;5.10;99.90
17944;DHT22;9097;47.028;15.444;2022-12-10T14:59:38;5.10;99.90
17944;DHT22;9097;47.028;15.444;2022-12-10T15:02:56;5.00;99.90
17944;DHT22;9097;47.028;15.444;2022-12-10T15:06:08;5.00;99.90
17944;DHT22;9097;47.028;15.444;2022-12-10T15:09:15;4.90;99.90
17944;DHT22;9097;47.028;15.444;2022-12-10T15:12:30;5.00;99.90
17944;DHT22;9097;47.028;15.444;2022-12-10T15:15:40;5.00;99.90
17944;DHT22;9097;47.028;15.444;2022-12-10T15:18:55;5.00;99.90
17944;DHT22;9097;47.028;15.444;2022-12-10T15:22:02;4.90;99.90
17944;DHT22;9097;47.028;15.444;2022-12-10T15:25:27;4.90;99.90
17944;DHT22;9097;47.028;15.444;2022-12-10T15:28:31;4.80;99.90
17944;DHT22;9097;47.028;15.444;2022-12-10T15:31:39;4.70;99.90
17944;DHT22;9097;47.028;15.444;2022-12-10T15:34:55;4.70;99.90
17944;DHT22;9097;47.028;15.444;2022-12-10T15:38:14;4.70;99.90
17944;DHT22;9097;47.028;15.444;2022-12-10T15:41:40;4.60;99.90
17944;DHT22;9097;47.028;15.444;2022-12-10T15:44:56;4.70;99.90
17944;DHT22;9097;47.028;15.444;2022-12-10T15:48:08;4.80;99.90
17944;DHT22;9097;47.028;15.444;2022-12-10T15:51:14;4.80;99.90
17944;DHT22;9097;47.028;15.444;2022-12-10T15:54:33;4.70;99.90
17944;DHT22;9097;47.028;15.444;2022-12-10T15:57:44;4.60;99.90
17944;DHT22;9097;47.028;15.444;2022-12-10T16:00:50;4.60;99.90
17944;DHT22;9097;47.028;15.444;2022-12-10T16:03:52;4.50;99.90
17944;DHT22;9097;47.028;15.444;2022-12-10T16:06:57;4.50;99.90
17944;DHT22;9097;47.028;15.444;2022-12-10T16:09:59;4.60;99.90
17944;DHT22;9097;47.028;15.444;2022-12-10T16:13:04;4.60;99.90
17944;DHT22;9097;47.028;15.444;2022-12-10T16:16:09;4.40;99.90
17944;DHT22;9097;47.028;15.444;2022-12-10T16:19:15;4.40;99.90
17944;DHT22;9097;47.028;15.444;2022-12-10T16:22:20;4.30;99.90
17944;DHT22;9097;47.028;15.444;2022-12-10T16:25:24;4.30;99.90
17944;DHT22;9097;47.028;15.444;2022-12-10T16:28:27;4.20;99.90
17944;DHT22;9097;47.028;15.444;2022-12-10T16:31:30;4.20;99.90
17944;DHT22;9097;47.028;15.444;2022-12-10T16:34:33;4.00;99.90
17944;DHT22;9097;47.028;15.444;2022-12-10T16:37:37;3.90;99.90
17944;DHT22;9097;47.028;15.444;2022-12-10T16:40:41;3.70;99.90
17944;DHT22;9097;47.028;15.444;2022-12-10T16:43:44;3.80;99.90
17944;DHT22;9097;47.028;15.444;2022-12-10T16:46:47;3.70;99.90
17944;DHT22;9097;47.028;15.444;2022-12-10T16:49:50;3.80;99.90
17944;DHT22;9097;47.028;15.444;2022-12-10T16:52:55;3.90;99.90
17944;DHT22;9097;47.028;15.444;2022-12-10T16:55:58;3.80;99.90
17944;DHT22;9097;47.028;15.444;2022-12-10T16:59:02;3.80;99.90
17944;DHT22;9097;47.028;15.444;2022-12-10T17:02:12;3.70;99.90
17944;DHT22;9097;47.028;15.444;2022-12-10T17:05:22;3.50;99.90
17944;DHT22;9097;47.028;15.444;2022-12-10T17:08:28;3.50;99.90
17944;DHT22;9097;47.028;15.444;2022-12-10T17:11:35;3.50;99.90
17944;DHT22;9097;47.028;15.444;2022-12-10T17:14:50;3.60;99.90
17944;DHT22;9097;47.028;15.444;2022-12-10T17:17:52;3.70;99.90
17944;DHT22;9097;47.028;15.444;2022-12-10T17:20:54;3.70;99.90
17944;DHT22;9097;47.028;15.444;2022-12-10T17:23:58;3.70;99.90
17944;DHT22;9097;47.028;15.444;2022-12-10T17:27:04;3.60;99.90
17944;DHT22;9097;47.028;15.444;2022-12-10T17:30:12;3.50;99.90
17944;DHT22;9097;47.028;15.444;2022-12-10T17:33:18;3.60;99.90
17944;DHT22;9097;47.028;15.444;2022-12-10T17:36:21;3.60;99.90
17944;DHT22;9097;47.028;15.444;2022-12-10T17:39:26;3.50;99.90
17944;DHT22;9097;47.028;15.444;2022-12-10T17:42:30;3.50;99.90
17944;DHT22;9097;47.028;15.444;2022-12-10T17:45:33;3.50;99.90
17944;DHT22;9097;47.028;15.444;2022-12-10T17:48:36;3.50;99.90
17944;DHT22;9097;47.028;15.444;2022-12-10T17:51:41;3.50;99.90
17944;DHT22;9097;47.028;15.444;2022-12-10T17:54:47;3.50;99.90
17944;DHT22;9097;47.028;15.444;2022-12-10T17:57:52;3.50;99.90
17944;DHT22;9097;47.028;15.444;2022-12-10T18:01:04;3.60;99.90
17944;DHT22;9097;47.028;15.444;2022-12-10T18:04:16;3.70;99.90
17944;DHT22;9097;47.028;15.444;2022-12-10T18:07:25;3.70;99.90
17944;DHT22;9097;47.028;15.444;2022-12-10T18:10:34;3.70;99.90
17944;DHT22;9097;47.028;15.444;2022-12-10T18:13:56;3.70;99.90
17944;DHT22;9097;47.028;15.444;2022-12-10T18:17:27;3.70;99.90
17944;DHT22;9097;47.028;15.444;2022-12-10T18:20:39;3.60;99.90
17944;DHT22;9097;47.028;15.444;2022-12-10T18:23:49;3.60;99.90
17944;DHT22;9097;47.028;15.444;2022-12-10T18:26:54;3.60;99.90
17944;DHT22;9097;47.028;15.444;2022-12-10T18:30:17;3.60;99.90
17944;DHT22;9097;47.028;15.444;2022-12-10T18:33:49;3.70;99.90
17944;DHT22;9097;47.028;15.444;2022-12-10T18:37:11;3.60;99.90
17944;DHT22;9097;47.028;15.444;2022-12-10T18:40:18;3.60;99.90
17944;DHT22;9097;47.028;15.444;2022-12-10T18:43:26;3.60;99.90
17944;DHT22;9097;47.028;15.444;2022-12-10T18:46:34;3.60;99.90
17944;DHT22;9097;47.028;15.444;2022-12-10T18:49:43;3.60;99.90
17944;DHT22;9097;47.028;15.444;2022-12-10T18:52:49;3.50;99.90
17944;DHT22;9097;47.028;15.444;2022-12-10T18:55:57;3.50;99.90
17944;DHT22;9097;47.028;15.444;2022-12-10T18:59:22;3.60;99.90
17944;DHT22;9097;47.028;15.444;2022-12-10T19:02:30;3.50;99.90
17944;DHT22;9097;47.028;15.444;2022-12-10T19:05:36;3.50;99.90
17944;DHT22;9097;47.028;15.444;2022-12-10T19:08:41;3.50;99.90
17944;DHT22;9097;47.028;15.444;2022-12-10T19:11:46;3.60;99.90
17944;DHT22;9097;47.028;15.444;2022-12-10T19:14:57;3.60;99.90
17944;DHT22;9097;47.028;15.444;2022-12-10T19:18:08;3.60;99.90
17944;DHT22;9097;47.028;15.444;2022-12-10T19:21:15;3.70;99.90
17944;DHT22;9097;47.028;15.444;2022-12-10T19:24:27;3.70;99.90
17944;DHT22;9097;47.028;15.444;2022-12-10T19:27:44;3.80;99.90
17944;DHT22;9097;47.028;15.444;2022-12-10T19:31:08;3.90;99.90
17944;DHT22;9097;47.028;15.444;2022-12-10T19:34:23;3.90;99.90
17944;DHT22;9097;47.028;15.444;2022-12-10T19:37:42;3.90;99.90
17944;DHT22;9097;47.028;15.444;2022-12-10T19:41:11;3.90;99.90
17944;DHT22;9097;47.028;15.444;2022-12-10T19:44:41;3.90;99.90
17944;DHT22;9097;47.028;15.444;2022-12-10T19:48:10;3.90;99.90
17944;DHT22;9097;47.028;15.444;2022-12-10T19:51:33;3.90;99.90
17944;DHT22;9097;47.028;15.444;2022-12-10T19:55:02;3.90;99.90
17944;DHT22;9097;47.028;15.444;2022-12-10T19:58:16;4.00;99.90
17944;DHT22;9097;47.028;15.444;2022-12-10T20:01:23;3.90;99.90
17944;DHT22;9097;47.028;15.444;2022-12-10T20:04:47;4.00;99.90